Página principal
METAR-TAF:

METAR-TAF

Aeroportos :

Tan-Tan, Marrocos

latitude: 28-26-54N, longitude: 11-09-41W, altura: 199 m

Observação actual do tempo

O boletim foi feito há 10 minutos, às 07:00 UTC
Vento 14 kt de nor-nordeste
Temperatura 19°C
Humidade 88%
Pressão 1013 hPa
Visibilidade: 8000 m
Nuvens dispersasa uma altura de 1000 ft
Nuvens dispersasa uma altura de 1600 ft

METAR: GMAT 120700Z 02014KT 8000 SCT010 SCT016 19/17 Q1013 NOSIG

Hora: 08:10 (07:10 UTC)


TAF: em falta

Observações e previsões do tempo de mais de 4000 aeroportos (mensagens METAR e TAF).

As estações disponíveis são os pontos amarelos e vermelhos sobre o mapa.

Mova o rato sobre o mapa para ver o nome da estação.

Depois clique no ponto para visualizar as observações e previsões meteorológicas.

Para alterar o mapa : clique nos botões verdes com uma cruz preta para aumentar o zoom; no botão verde com uma pitada de zoom; ou nas setas verdes para mapas adjacentes.


METAR-TAF: